Airfield :







YOU CAN JOIN US ON...

 
LOGIN :

Register | Disclaimer

   EN    FR    IT 

 









Legend :    VFR   Marginal VFR   IFR   Intensive IFR   Very Intensive IFR
Visi :
Ceiling :
>= 8 km
>= 3000ft
5 to 8 km
1000 to 3000 ft
1500m to 5 km
500 to 1000 ft
800 to 1500m
200 to 500 ft
< 800m
< 200 ft
Symbols :   Thunderstorms  Fog  Heavy snow  Heavy precipitations  Wind > 20 kt






- Airport Elevation : 335 ft
- IATA code : BTV


KBTV - Burlington International

CURRENT METAR :
  • 291754Z 17009KT 4SM -SN OVC039 02/M03 A3000 RMK AO2 SNB31 SLP163 VIS 2V5 4/010 P0000 60000 T00221033 10022 21033 58050

EXPIRED METARs :
  • 291736Z 17011KT 4SM -SN BKN037 OVC046 02/M04 A3002 RMK AO2 SNB31 P0000 T00221044
  • 291654Z 18008KT 10SM BKN041 OVC049 02/M05 A3006 RMK AO2 PRESFR SLP183 T00171050
  • 291554Z 17005KT 10SM OVC070 01/M05 A3011 RMK AO2 SLP200 T00111050

TAF KBTV
Valid from the 29 at 18:00 until the 30 at 18:00 UTC


291742Z 2918/3018 18006KT P6SM VCSH BKN040 OVC050 WS020/20040KT
TEMPO 2918/2922 3SM -SN OVC030
FM292200 26007KT 4SM -RASN BR BKN019 OVC030 WS020/22030KT
FM300200 34008KT 1 1/2SM -SN BR BKN008
FM300400 35007KT 4SM -SHSN BR BKN009
FM300700 36007KT P6SM VCSH OVC015
KZBW FIR / North America



MET'MAP, your aeronautical weather chart ! - Copyright ORBIFLY December 2007 - Disclaimer

ORBIFLY MET'MAP TEAM :

Programming & Development : Alexandra Zaïnal
Original concept : Baudouin d'Aumeries
Technical & hardware support : Manuel Goepfert
Assistance : Marc-Olivier Méhu




SOURCES & CREDITS :

   NOAA